sensor_id;sensor_type;location;lat;lon;timestamp;P1;durP1;ratioP1;P2;durP2;ratioP2
34489;SDS011;20730;49.372;7.324;2023-09-18T00:00:30;12.40;;;7.45;;
34489;SDS011;20730;49.372;7.324;2023-09-18T00:02:57;9.68;;;6.35;;
34489;SDS011;20730;49.372;7.324;2023-09-18T00:05:23;13.57;;;6.80;;
34489;SDS011;20730;49.372;7.324;2023-09-18T00:07:50;10.27;;;6.43;;
34489;SDS011;20730;49.372;7.324;2023-09-18T00:10:17;12.50;;;6.88;;
34489;SDS011;20730;49.372;7.324;2023-09-18T00:12:44;12.02;;;6.85;;
34489;SDS011;20730;49.372;7.324;2023-09-18T00:15:11;15.15;;;7.82;;
34489;SDS011;20730;49.372;7.324;2023-09-18T00:17:38;16.85;;;6.68;;
34489;SDS011;20730;49.372;7.324;2023-09-18T00:20:04;15.07;;;6.93;;
34489;SDS011;20730;49.372;7.324;2023-09-18T00:22:35;11.75;;;6.47;;
34489;SDS011;20730;49.372;7.324;2023-09-18T00:25:02;13.98;;;6.60;;
34489;SDS011;20730;49.372;7.324;2023-09-18T00:27:29;10.18;;;6.30;;
34489;SDS011;20730;49.372;7.324;2023-09-18T00:29:56;13.48;;;6.43;;
34489;SDS011;20730;49.372;7.324;2023-09-18T00:32:22;13.77;;;6.95;;
34489;SDS011;20730;49.372;7.324;2023-09-18T00:34:49;11.68;;;6.70;;
34489;SDS011;20730;49.372;7.324;2023-09-18T00:37:16;12.23;;;6.53;;
34489;SDS011;20730;49.372;7.324;2023-09-18T00:39:43;11.45;;;6.88;;
34489;SDS011;20730;49.372;7.324;2023-09-18T00:42:10;11.10;;;6.25;;
34489;SDS011;20730;49.372;7.324;2023-09-18T00:44:42;12.48;;;6.10;;
34489;SDS011;20730;49.372;7.324;2023-09-18T00:47:08;10.43;;;5.10;;
34489;SDS011;20730;49.372;7.324;2023-09-18T00:49:36;11.90;;;4.97;;
34489;SDS011;20730;49.372;7.324;2023-09-18T00:52:04;10.43;;;4.80;;
34489;SDS011;20730;49.372;7.324;2023-09-18T00:54:31;9.88;;;4.75;;
34489;SDS011;20730;49.372;7.324;2023-09-18T00:56:58;10.27;;;4.82;;
34489;SDS011;20730;49.372;7.324;2023-09-18T00:59:25;10.13;;;4.43;;
34489;SDS011;20730;49.372;7.324;2023-09-18T01:01:53;11.57;;;4.65;;
34489;SDS011;20730;49.372;7.324;2023-09-18T01:04:20;17.35;;;4.63;;
34489;SDS011;20730;49.372;7.324;2023-09-18T01:06:48;19.98;;;4.60;;
34489;SDS011;20730;49.372;7.324;2023-09-18T01:09:18;11.35;;;4.13;;
34489;SDS011;20730;49.372;7.324;2023-09-18T01:12:04;12.50;;;4.40;;
34489;SDS011;20730;49.372;7.324;2023-09-18T01:17:19;15.65;;;4.72;;
34489;SDS011;20730;49.372;7.324;2023-09-18T01:19:47;11.57;;;4.50;;
34489;SDS011;20730;49.372;7.324;2023-09-18T01:22:15;13.43;;;4.55;;
34489;SDS011;20730;49.372;7.324;2023-09-18T01:24:43;16.40;;;4.57;;
34489;SDS011;20730;49.372;7.324;2023-09-18T01:27:13;12.73;;;4.27;;
34489;SDS011;20730;49.372;7.324;2023-09-18T01:29:40;16.50;;;4.70;;
34489;SDS011;20730;49.372;7.324;2023-09-18T01:32:07;12.13;;;4.47;;
34489;SDS011;20730;49.372;7.324;2023-09-18T01:34:35;16.73;;;4.88;;
34489;SDS011;20730;49.372;7.324;2023-09-18T01:37:04;13.82;;;4.57;;
34489;SDS011;20730;49.372;7.324;2023-09-18T01:39:32;13.57;;;5.15;;
34489;SDS011;20730;49.372;7.324;2023-09-18T01:42:00;11.43;;;4.70;;
34489;SDS011;20730;49.372;7.324;2023-09-18T01:44:28;14.52;;;4.90;;
34489;SDS011;20730;49.372;7.324;2023-09-18T01:46:59;15.15;;;4.70;;
34489;SDS011;20730;49.372;7.324;2023-09-18T01:51:55;14.85;;;4.72;;
34489;SDS011;20730;49.372;7.324;2023-09-18T01:54:21;10.15;;;4.32;;
34489;SDS011;20730;49.372;7.324;2023-09-18T01:56:48;15.85;;;4.75;;
34489;SDS011;20730;49.372;7.324;2023-09-18T01:59:15;11.55;;;5.18;;
34489;SDS011;20730;49.372;7.324;2023-09-18T02:01:43;15.23;;;4.90;;
34489;SDS011;20730;49.372;7.324;2023-09-18T02:04:12;16.73;;;5.35;;
34489;SDS011;20730;49.372;7.324;2023-09-18T02:06:59;11.40;;;4.43;;
34489;SDS011;20730;49.372;7.324;2023-09-18T02:09:25;12.95;;;5.47;;
34489;SDS011;20730;49.372;7.324;2023-09-18T02:11:52;16.70;;;5.75;;
34489;SDS011;20730;49.372;7.324;2023-09-18T02:14:19;13.95;;;5.00;;
34489;SDS011;20730;49.372;7.324;2023-09-18T02:16:46;18.88;;;5.60;;
34489;SDS011;20730;49.372;7.324;2023-09-18T02:19:13;12.50;;;6.10;;
34489;SDS011;20730;49.372;7.324;2023-09-18T02:21:40;10.68;;;5.70;;
34489;SDS011;20730;49.372;7.324;2023-09-18T02:24:07;25.23;;;6.47;;
34489;SDS011;20730;49.372;7.324;2023-09-18T02:26:35;12.18;;;6.30;;
34489;SDS011;20730;49.372;7.324;2023-09-18T02:29:05;12.10;;;5.38;;
34489;SDS011;20730;49.372;7.324;2023-09-18T02:31:40;10.18;;;5.72;;
34489;SDS011;20730;49.372;7.324;2023-09-18T02:34:07;16.40;;;6.00;;
34489;SDS011;20730;49.372;7.324;2023-09-18T02:36:37;9.25;;;5.07;;
34489;SDS011;20730;49.372;7.324;2023-09-18T02:39:04;13.80;;;5.70;;
34489;SDS011;20730;49.372;7.324;2023-09-18T02:41:31;13.73;;;5.40;;
34489;SDS011;20730;49.372;7.324;2023-09-18T02:43:57;10.65;;;5.28;;
34489;SDS011;20730;49.372;7.324;2023-09-18T02:46:24;10.02;;;4.97;;
34489;SDS011;20730;49.372;7.324;2023-09-18T02:48:51;12.95;;;5.30;;
34489;SDS011;20730;49.372;7.324;2023-09-18T02:51:19;12.48;;;5.00;;
34489;SDS011;20730;49.372;7.324;2023-09-18T02:53:46;12.40;;;5.07;;
34489;SDS011;20730;49.372;7.324;2023-09-18T02:56:13;11.85;;;5.22;;
34489;SDS011;20730;49.372;7.324;2023-09-18T02:58:40;12.70;;;4.97;;
34489;SDS011;20730;49.372;7.324;2023-09-18T03:01:07;17.70;;;5.13;;
34489;SDS011;20730;49.372;7.324;2023-09-18T03:03:35;13.35;;;5.03;;
34489;SDS011;20730;49.372;7.324;2023-09-18T03:06:02;10.23;;;5.22;;
34489;SDS011;20730;49.372;7.324;2023-09-18T03:08:30;14.90;;;4.93;;
34489;SDS011;20730;49.372;7.324;2023-09-18T03:10:58;11.70;;;4.55;;
34489;SDS011;20730;49.372;7.324;2023-09-18T03:13:26;14.45;;;5.05;;
34489;SDS011;20730;49.372;7.324;2023-09-18T03:15:54;21.25;;;4.90;;
34489;SDS011;20730;49.372;7.324;2023-09-18T03:18:23;19.55;;;5.38;;
34489;SDS011;20730;49.372;7.324;2023-09-18T03:20:51;22.08;;;5.28;;
34489;SDS011;20730;49.372;7.324;2023-09-18T03:23:19;18.73;;;4.70;;
34489;SDS011;20730;49.372;7.324;2023-09-18T03:25:46;18.55;;;5.28;;
34489;SDS011;20730;49.372;7.324;2023-09-18T03:28:19;23.10;;;5.20;;
34489;SDS011;20730;49.372;7.324;2023-09-18T03:30:47;19.55;;;4.93;;
34489;SDS011;20730;49.372;7.324;2023-09-18T03:33:17;21.83;;;4.82;;
34489;SDS011;20730;49.372;7.324;2023-09-18T03:35:47;18.52;;;5.10;;
34489;SDS011;20730;49.372;7.324;2023-09-18T03:38:18;20.75;;;5.15;;
34489;SDS011;20730;49.372;7.324;2023-09-18T03:40:45;18.30;;;4.97;;
34489;SDS011;20730;49.372;7.324;2023-09-18T03:43:12;17.42;;;5.32;;
34489;SDS011;20730;49.372;7.324;2023-09-18T03:45:39;21.50;;;5.95;;
34489;SDS011;20730;49.372;7.324;2023-09-18T03:48:09;20.27;;;5.20;;
34489;SDS011;20730;49.372;7.324;2023-09-18T03:50:37;20.63;;;4.80;;
34489;SDS011;20730;49.372;7.324;2023-09-18T03:53:05;25.08;;;5.43;;
34489;SDS011;20730;49.372;7.324;2023-09-18T03:55:32;19.02;;;5.18;;
34489;SDS011;20730;49.372;7.324;2023-09-18T03:57:59;21.38;;;5.20;;
34489;SDS011;20730;49.372;7.324;2023-09-18T04:00:26;21.92;;;5.45;;
34489;SDS011;20730;49.372;7.324;2023-09-18T04:02:53;16.08;;;4.93;;
34489;SDS011;20730;49.372;7.324;2023-09-18T04:05:20;22.70;;;5.55;;
34489;SDS011;20730;49.372;7.324;2023-09-18T04:07:48;20.60;;;5.35;;
34489;SDS011;20730;49.372;7.324;2023-09-18T04:10:15;19.92;;;5.43;;
34489;SDS011;20730;49.372;7.324;2023-09-18T04:12:46;19.02;;;4.97;;
34489;SDS011;20730;49.372;7.324;2023-09-18T04:15:15;25.90;;;5.88;;
34489;SDS011;20730;49.372;7.324;2023-09-18T04:17:45;21.65;;;4.90;;
34489;SDS011;20730;49.372;7.324;2023-09-18T04:20:13;28.05;;;5.70;;
34489;SDS011;20730;49.372;7.324;2023-09-18T04:22:45;22.00;;;5.50;;
34489;SDS011;20730;49.372;7.324;2023-09-18T04:25:16;14.50;;;4.60;;
34489;SDS011;20730;49.372;7.324;2023-09-18T04:27:42;18.40;;;4.80;;
34489;SDS011;20730;49.372;7.324;2023-09-18T04:30:09;18.67;;;5.20;;
34489;SDS011;20730;49.372;7.324;2023-09-18T04:32:37;19.15;;;5.55;;
34489;SDS011;20730;49.372;7.324;2023-09-18T04:35:05;23.00;;;5.60;;
34489;SDS011;20730;49.372;7.324;2023-09-18T04:37:35;21.55;;;5.50;;
34489;SDS011;20730;49.372;7.324;2023-09-18T04:40:03;23.92;;;4.90;;
34489;SDS011;20730;49.372;7.324;2023-09-18T04:42:31;13.93;;;3.83;;
34489;SDS011;20730;49.372;7.324;2023-09-18T04:44:58;16.17;;;3.75;;
34489;SDS011;20730;49.372;7.324;2023-09-18T04:47:25;15.82;;;3.83;;
34489;SDS011;20730;49.372;7.324;2023-09-18T04:49:52;16.80;;;3.88;;
34489;SDS011;20730;49.372;7.324;2023-09-18T04:52:20;17.38;;;4.05;;
34489;SDS011;20730;49.372;7.324;2023-09-18T04:54:47;18.05;;;3.90;;
34489;SDS011;20730;49.372;7.324;2023-09-18T04:57:14;15.55;;;3.75;;
34489;SDS011;20730;49.372;7.324;2023-09-18T04:59:43;15.07;;;4.25;;
34489;SDS011;20730;49.372;7.324;2023-09-18T05:02:10;17.45;;;4.13;;
34489;SDS011;20730;49.372;7.324;2023-09-18T05:04:37;11.38;;;3.60;;
34489;SDS011;20730;49.372;7.324;2023-09-18T05:07:04;14.30;;;4.22;;
34489;SDS011;20730;49.372;7.324;2023-09-18T05:09:31;9.73;;;3.38;;
34489;SDS011;20730;49.372;7.324;2023-09-18T05:11:59;11.45;;;3.78;;
34489;SDS011;20730;49.372;7.324;2023-09-18T05:14:26;19.08;;;4.43;;
34489;SDS011;20730;49.372;7.324;2023-09-18T05:16:53;12.30;;;3.55;;
34489;SDS011;20730;49.372;7.324;2023-09-18T05:19:20;16.13;;;3.70;;
34489;SDS011;20730;49.372;7.324;2023-09-18T05:21:47;14.35;;;3.80;;
34489;SDS011;20730;49.372;7.324;2023-09-18T05:24:14;11.48;;;3.50;;
34489;SDS011;20730;49.372;7.324;2023-09-18T05:26:41;10.93;;;3.75;;
34489;SDS011;20730;49.372;7.324;2023-09-18T05:29:08;13.50;;;3.83;;
34489;SDS011;20730;49.372;7.324;2023-09-18T05:31:36;14.15;;;3.50;;
34489;SDS011;20730;49.372;7.324;2023-09-18T05:34:03;12.85;;;3.70;;
34489;SDS011;20730;49.372;7.324;2023-09-18T05:36:30;12.27;;;3.60;;
34489;SDS011;20730;49.372;7.324;2023-09-18T05:38:57;7.97;;;3.50;;
34489;SDS011;20730;49.372;7.324;2023-09-18T05:41:23;12.60;;;3.67;;
34489;SDS011;20730;49.372;7.324;2023-09-18T05:43:52;9.48;;;3.58;;
34489;SDS011;20730;49.372;7.324;2023-09-18T05:46:20;18.45;;;3.15;;
34489;SDS011;20730;49.372;7.324;2023-09-18T05:48:46;10.48;;;2.95;;
34489;SDS011;20730;49.372;7.324;2023-09-18T05:51:13;9.55;;;2.83;;
34489;SDS011;20730;49.372;7.324;2023-09-18T05:53:40;13.35;;;3.08;;
34489;SDS011;20730;49.372;7.324;2023-09-18T05:56:06;10.32;;;3.17;;
34489;SDS011;20730;49.372;7.324;2023-09-18T05:58:35;12.00;;;3.17;;
34489;SDS011;20730;49.372;7.324;2023-09-18T06:01:02;10.48;;;3.15;;
34489;SDS011;20730;49.372;7.324;2023-09-18T06:03:29;6.28;;;2.55;;
34489;SDS011;20730;49.372;7.324;2023-09-18T06:06:02;10.90;;;3.20;;
34489;SDS011;20730;49.372;7.324;2023-09-18T06:08:29;10.40;;;2.70;;
34489;SDS011;20730;49.372;7.324;2023-09-18T06:10:57;10.13;;;2.35;;
34489;SDS011;20730;49.372;7.324;2023-09-18T06:13:24;5.13;;;2.28;;
34489;SDS011;20730;49.372;7.324;2023-09-18T06:15:51;14.50;;;2.70;;
34489;SDS011;20730;49.372;7.324;2023-09-18T06:18:21;11.38;;;2.60;;
34489;SDS011;20730;49.372;7.324;2023-09-18T06:20:49;10.38;;;2.78;;
34489;SDS011;20730;49.372;7.324;2023-09-18T06:23:15;10.07;;;2.53;;
34489;SDS011;20730;49.372;7.324;2023-09-18T06:25:42;9.57;;;2.30;;
34489;SDS011;20730;49.372;7.324;2023-09-18T06:28:09;9.15;;;2.28;;
34489;SDS011;20730;49.372;7.324;2023-09-18T06:30:36;6.03;;;2.42;;
34489;SDS011;20730;49.372;7.324;2023-09-18T06:33:03;10.32;;;2.13;;
34489;SDS011;20730;49.372;7.324;2023-09-18T06:35:33;6.80;;;2.38;;
34489;SDS011;20730;49.372;7.324;2023-09-18T06:37:59;7.88;;;2.40;;
34489;SDS011;20730;49.372;7.324;2023-09-18T06:40:26;9.20;;;2.40;;
34489;SDS011;20730;49.372;7.324;2023-09-18T06:42:58;6.40;;;2.10;;
34489;SDS011;20730;49.372;7.324;2023-09-18T06:45:25;6.20;;;2.05;;
34489;SDS011;20730;49.372;7.324;2023-09-18T06:47:51;9.45;;;2.20;;
34489;SDS011;20730;49.372;7.324;2023-09-18T06:50:19;8.85;;;2.60;;
34489;SDS011;20730;49.372;7.324;2023-09-18T06:52:46;7.45;;;2.15;;
34489;SDS011;20730;49.372;7.324;2023-09-18T06:55:13;8.13;;;2.28;;
34489;SDS011;20730;49.372;7.324;2023-09-18T06:57:40;8.25;;;2.20;;
34489;SDS011;20730;49.372;7.324;2023-09-18T07:00:07;5.38;;;1.88;;
34489;SDS011;20730;49.372;7.324;2023-09-18T07:02:34;7.78;;;1.88;;
34489;SDS011;20730;49.372;7.324;2023-09-18T07:05:01;10.35;;;2.83;;
34489;SDS011;20730;49.372;7.324;2023-09-18T07:07:28;6.13;;;1.52;;
34489;SDS011;20730;49.372;7.324;2023-09-18T07:09:55;9.10;;;1.90;;
34489;SDS011;20730;49.372;7.324;2023-09-18T07:12:24;5.55;;;1.88;;
34489;SDS011;20730;49.372;7.324;2023-09-18T07:14:51;11.27;;;1.88;;
34489;SDS011;20730;49.372;7.324;2023-09-18T07:17:18;6.00;;;1.67;;
34489;SDS011;20730;49.372;7.324;2023-09-18T07:19:45;8.65;;;2.00;;
34489;SDS011;20730;49.372;7.324;2023-09-18T07:22:11;8.35;;;1.98;;
34489;SDS011;20730;49.372;7.324;2023-09-18T07:24:38;7.57;;;2.08;;
34489;SDS011;20730;49.372;7.324;2023-09-18T07:27:08;8.55;;;1.90;;
34489;SDS011;20730;49.372;7.324;2023-09-18T07:29:35;4.40;;;1.80;;
34489;SDS011;20730;49.372;7.324;2023-09-18T07:32:02;4.93;;;1.90;;
34489;SDS011;20730;49.372;7.324;2023-09-18T07:34:29;7.13;;;1.95;;
34489;SDS011;20730;49.372;7.324;2023-09-18T07:36:56;7.32;;;1.63;;
34489;SDS011;20730;49.372;7.324;2023-09-18T07:39:23;7.05;;;1.60;;
34489;SDS011;20730;49.372;7.324;2023-09-18T07:41:50;8.75;;;1.83;;
34489;SDS011;20730;49.372;7.324;2023-09-18T07:44:19;7.07;;;1.70;;
34489;SDS011;20730;49.372;7.324;2023-09-18T07:46:47;6.13;;;2.00;;
34489;SDS011;20730;49.372;7.324;2023-09-18T07:49:14;3.50;;;1.40;;
34489;SDS011;20730;49.372;7.324;2023-09-18T07:51:41;4.63;;;1.40;;
34489;SDS011;20730;49.372;7.324;2023-09-18T07:54:07;6.57;;;1.50;;
34489;SDS011;20730;49.372;7.324;2023-09-18T07:56:34;9.75;;;1.60;;
34489;SDS011;20730;49.372;7.324;2023-09-18T07:59:02;4.63;;;1.42;;
34489;SDS011;20730;49.372;7.324;2023-09-18T08:01:31;3.85;;;1.60;;
34489;SDS011;20730;49.372;7.324;2023-09-18T08:03:58;7.60;;;1.58;;
34489;SDS011;20730;49.372;7.324;2023-09-18T08:06:27;6.57;;;1.30;;
34489;SDS011;20730;49.372;7.324;2023-09-18T08:08:54;3.75;;;1.13;;
34489;SDS011;20730;49.372;7.324;2023-09-18T08:11:22;4.63;;;1.15;;
34489;SDS011;20730;49.372;7.324;2023-09-18T08:13:48;7.50;;;1.50;;
34489;SDS011;20730;49.372;7.324;2023-09-18T08:16:15;3.15;;;1.33;;
34489;SDS011;20730;49.372;7.324;2023-09-18T08:18:43;5.07;;;1.27;;
34489;SDS011;20730;49.372;7.324;2023-09-18T08:21:10;4.93;;;1.55;;
34489;SDS011;20730;49.372;7.324;2023-09-18T08:23:39;4.65;;;1.40;;
34489;SDS011;20730;49.372;7.324;2023-09-18T08:26:06;4.85;;;1.20;;
34489;SDS011;20730;49.372;7.324;2023-09-18T08:28:34;6.28;;;1.27;;
34489;SDS011;20730;49.372;7.324;2023-09-18T08:31:04;3.33;;;1.10;;
34489;SDS011;20730;49.372;7.324;2023-09-18T08:33:31;5.20;;;1.45;;
34489;SDS011;20730;49.372;7.324;2023-09-18T08:35:58;2.75;;;1.20;;
34489;SDS011;20730;49.372;7.324;2023-09-18T08:38:24;5.93;;;1.20;;
34489;SDS011;20730;49.372;7.324;2023-09-18T08:40:53;3.00;;;1.30;;
34489;SDS011;20730;49.372;7.324;2023-09-18T08:43:20;4.22;;;1.10;;
34489;SDS011;20730;49.372;7.324;2023-09-18T08:45:56;3.00;;;0.98;;
34489;SDS011;20730;49.372;7.324;2023-09-18T08:48:28;3.55;;;1.20;;
34489;SDS011;20730;49.372;7.324;2023-09-18T08:51:03;4.47;;;1.08;;
34489;SDS011;20730;49.372;7.324;2023-09-18T08:53:31;4.55;;;1.20;;
34489;SDS011;20730;49.372;7.324;2023-09-18T08:55:59;5.45;;;1.65;;
34489;SDS011;20730;49.372;7.324;2023-09-18T08:58:29;3.40;;;1.17;;
34489;SDS011;20730;49.372;7.324;2023-09-18T09:00:58;3.45;;;1.08;;
34489;SDS011;20730;49.372;7.324;2023-09-18T09:03:26;6.38;;;1.27;;
34489;SDS011;20730;49.372;7.324;2023-09-18T09:05:53;3.33;;;1.08;;
34489;SDS011;20730;49.372;7.324;2023-09-18T09:08:20;1.52;;;0.80;;
34489;SDS011;20730;49.372;7.324;2023-09-18T09:10:48;4.32;;;1.23;;
34489;SDS011;20730;49.372;7.324;2023-09-18T09:13:14;3.72;;;1.08;;
34489;SDS011;20730;49.372;7.324;2023-09-18T09:16:01;4.55;;;0.95;;
34489;SDS011;20730;49.372;7.324;2023-09-18T09:18:28;2.92;;;0.95;;
34489;SDS011;20730;49.372;7.324;2023-09-18T09:20:58;8.93;;;1.20;;
34489;SDS011;20730;49.372;7.324;2023-09-18T09:26:21;4.80;;;1.10;;
34489;SDS011;20730;49.372;7.324;2023-09-18T09:28:49;3.33;;;0.80;;
34489;SDS011;20730;49.372;7.324;2023-09-18T09:31:29;5.10;;;0.93;;
34489;SDS011;20730;49.372;7.324;2023-09-18T09:33:57;2.78;;;1.05;;
34489;SDS011;20730;49.372;7.324;2023-09-18T09:36:25;4.68;;;1.02;;
34489;SDS011;20730;49.372;7.324;2023-09-18T09:38:58;5.05;;;1.00;;
34489;SDS011;20730;49.372;7.324;2023-09-18T09:41:26;5.75;;;1.20;;
34489;SDS011;20730;49.372;7.324;2023-09-18T09:43:54;4.47;;;1.17;;
34489;SDS011;20730;49.372;7.324;2023-09-18T09:46:22;4.57;;;1.20;;
34489;SDS011;20730;49.372;7.324;2023-09-18T09:49:02;2.88;;;0.90;;
34489;SDS011;20730;49.372;7.324;2023-09-18T09:51:29;3.25;;;1.00;;
34489;SDS011;20730;49.372;7.324;2023-09-18T09:53:57;3.60;;;1.20;;
34489;SDS011;20730;49.372;7.324;2023-09-18T09:56:41;2.63;;;1.10;;
34489;SDS011;20730;49.372;7.324;2023-09-18T09:59:17;5.03;;;1.10;;
34489;SDS011;20730;49.372;7.324;2023-09-18T10:01:48;1.60;;;1.10;;
34489;SDS011;20730;49.372;7.324;2023-09-18T10:04:17;1.88;;;1.00;;
34489;SDS011;20730;49.372;7.324;2023-09-18T10:06:58;2.60;;;1.00;;
34489;SDS011;20730;49.372;7.324;2023-09-18T10:09:33;2.05;;;1.00;;
34489;SDS011;20730;49.372;7.324;2023-09-18T10:12:02;3.97;;;1.07;;
34489;SDS011;20730;49.372;7.324;2023-09-18T10:14:31;5.95;;;1.75;;
34489;SDS011;20730;49.372;7.324;2023-09-18T10:17:17;2.10;;;1.10;;
34489;SDS011;20730;49.372;7.324;2023-09-18T10:19:49;3.00;;;1.00;;
34489;SDS011;20730;49.372;7.324;2023-09-18T10:22:23;2.60;;;1.30;;
34489;SDS011;20730;49.372;7.324;2023-09-18T10:24:54;2.45;;;1.30;;
34489;SDS011;20730;49.372;7.324;2023-09-18T10:27:37;5.60;;;1.30;;
34489;SDS011;20730;49.372;7.324;2023-09-18T10:30:05;3.63;;;1.45;;
34489;SDS011;20730;49.372;7.324;2023-09-18T10:32:40;4.82;;;1.50;;
34489;SDS011;20730;49.372;7.324;2023-09-18T10:35:07;5.90;;;1.52;;
34489;SDS011;20730;49.372;7.324;2023-09-18T10:37:34;3.17;;;1.20;;
34489;SDS011;20730;49.372;7.324;2023-09-18T10:40:03;6.18;;;1.40;;
34489;SDS011;20730;49.372;7.324;2023-09-18T10:42:34;4.35;;;1.40;;
34489;SDS011;20730;49.372;7.324;2023-09-18T10:45:02;4.03;;;1.40;;
34489;SDS011;20730;49.372;7.324;2023-09-18T10:47:33;8.75;;;1.48;;
34489;SDS011;20730;49.372;7.324;2023-09-18T10:50:01;4.88;;;1.17;;
34489;SDS011;20730;49.372;7.324;2023-09-18T10:52:28;6.15;;;1.58;;
34489;SDS011;20730;49.372;7.324;2023-09-18T10:54:55;8.23;;;1.65;;
34489;SDS011;20730;49.372;7.324;2023-09-18T10:57:21;2.38;;;1.50;;
34489;SDS011;20730;49.372;7.324;2023-09-18T10:59:49;4.68;;;1.42;;
34489;SDS011;20730;49.372;7.324;2023-09-18T11:02:21;7.50;;;1.88;;
34489;SDS011;20730;49.372;7.324;2023-09-18T11:04:47;3.20;;;1.48;;
34489;SDS011;20730;49.372;7.324;2023-09-18T11:07:21;4.45;;;1.42;;
34489;SDS011;20730;49.372;7.324;2023-09-18T11:09:49;4.40;;;1.80;;
34489;SDS011;20730;49.372;7.324;2023-09-18T11:12:16;3.20;;;1.40;;
34489;SDS011;20730;49.372;7.324;2023-09-18T11:17:39;4.13;;;1.67;;
34489;SDS011;20730;49.372;7.324;2023-09-18T11:22:56;3.72;;;1.83;;
34489;SDS011;20730;49.372;7.324;2023-09-18T11:25:39;3.63;;;1.55;;
34489;SDS011;20730;49.372;7.324;2023-09-18T11:28:08;4.63;;;2.10;;
34489;SDS011;20730;49.372;7.324;2023-09-18T11:30:48;8.38;;;2.30;;
34489;SDS011;20730;49.372;7.324;2023-09-18T11:33:29;4.63;;;2.10;;
34489;SDS011;20730;49.372;7.324;2023-09-18T11:35:56;4.20;;;1.83;;
34489;SDS011;20730;49.372;7.324;2023-09-18T11:38:23;4.63;;;1.75;;
34489;SDS011;20730;49.372;7.324;2023-09-18T11:40:50;5.88;;;2.00;;
34489;SDS011;20730;49.372;7.324;2023-09-18T11:43:21;6.38;;;2.00;;
34489;SDS011;20730;49.372;7.324;2023-09-18T11:45:52;6.97;;;1.70;;
34489;SDS011;20730;49.372;7.324;2023-09-18T11:48:25;11.55;;;2.13;;
34489;SDS011;20730;49.372;7.324;2023-09-18T11:50:57;5.35;;;1.70;;
34489;SDS011;20730;49.372;7.324;2023-09-18T11:53:24;4.35;;;1.90;;
34489;SDS011;20730;49.372;7.324;2023-09-18T11:55:55;4.72;;;1.95;;
34489;SDS011;20730;49.372;7.324;2023-09-18T11:58:22;6.28;;;1.90;;
34489;SDS011;20730;49.372;7.324;2023-09-18T12:00:50;5.80;;;1.90;;
34489;SDS011;20730;49.372;7.324;2023-09-18T12:03:18;4.13;;;1.70;;
34489;SDS011;20730;49.372;7.324;2023-09-18T12:08:23;5.65;;;1.90;;
34489;SDS011;20730;49.372;7.324;2023-09-18T12:10:53;5.75;;;1.83;;
34489;SDS011;20730;49.372;7.324;2023-09-18T12:13:20;6.53;;;1.80;;
34489;SDS011;20730;49.372;7.324;2023-09-18T12:15:48;5.18;;;1.75;;
34489;SDS011;20730;49.372;7.324;2023-09-18T12:18:15;5.68;;;1.60;;
34489;SDS011;20730;49.372;7.324;2023-09-18T12:20:47;5.55;;;2.00;;
34489;SDS011;20730;49.372;7.324;2023-09-18T12:23:15;3.85;;;1.67;;
34489;SDS011;20730;49.372;7.324;2023-09-18T12:25:44;4.10;;;1.60;;
34489;SDS011;20730;49.372;7.324;2023-09-18T12:28:12;6.15;;;2.65;;
34489;SDS011;20730;49.372;7.324;2023-09-18T12:30:40;3.42;;;1.60;;
34489;SDS011;20730;49.372;7.324;2023-09-18T12:33:07;3.17;;;1.70;;
34489;SDS011;20730;49.372;7.324;2023-09-18T12:35:35;4.93;;;1.52;;
34489;SDS011;20730;49.372;7.324;2023-09-18T12:38:02;3.63;;;1.60;;
34489;SDS011;20730;49.372;7.324;2023-09-18T12:40:40;4.05;;;1.63;;
34489;SDS011;20730;49.372;7.324;2023-09-18T12:43:06;5.38;;;2.00;;
34489;SDS011;20730;49.372;7.324;2023-09-18T12:45:33;5.05;;;1.58;;
34489;SDS011;20730;49.372;7.324;2023-09-18T12:48:00;2.53;;;1.70;;
34489;SDS011;20730;49.372;7.324;2023-09-18T12:50:28;4.60;;;1.60;;
34489;SDS011;20730;49.372;7.324;2023-09-18T12:53:08;5.50;;;1.80;;
34489;SDS011;20730;49.372;7.324;2023-09-18T12:55:36;3.13;;;1.50;;
34489;SDS011;20730;49.372;7.324;2023-09-18T12:58:03;4.85;;;1.70;;
34489;SDS011;20730;49.372;7.324;2023-09-18T13:00:34;4.07;;;1.60;;
34489;SDS011;20730;49.372;7.324;2023-09-18T13:03:02;5.38;;;1.80;;
34489;SDS011;20730;49.372;7.324;2023-09-18T13:05:31;3.13;;;1.60;;
34489;SDS011;20730;49.372;7.324;2023-09-18T13:08:04;5.35;;;1.60;;
34489;SDS011;20730;49.372;7.324;2023-09-18T13:10:45;2.88;;;1.60;;
34489;SDS011;20730;49.372;7.324;2023-09-18T13:13:16;3.58;;;1.60;;
34489;SDS011;20730;49.372;7.324;2023-09-18T13:15:44;4.75;;;1.63;;
34489;SDS011;20730;49.372;7.324;2023-09-18T13:18:15;5.32;;;1.50;;
34489;SDS011;20730;49.372;7.324;2023-09-18T13:20:43;2.53;;;1.55;;
34489;SDS011;20730;49.372;7.324;2023-09-18T13:23:10;5.35;;;1.50;;
34489;SDS011;20730;49.372;7.324;2023-09-18T13:25:38;4.13;;;1.60;;
34489;SDS011;20730;49.372;7.324;2023-09-18T13:28:07;6.20;;;1.67;;
34489;SDS011;20730;49.372;7.324;2023-09-18T13:30:35;5.05;;;1.60;;
34489;SDS011;20730;49.372;7.324;2023-09-18T13:35:35;5.85;;;1.52;;
34489;SDS011;20730;49.372;7.324;2023-09-18T13:38:04;4.28;;;1.45;;
34489;SDS011;20730;49.372;7.324;2023-09-18T13:40:32;7.50;;;1.58;;
34489;SDS011;20730;49.372;7.324;2023-09-18T13:43:02;5.22;;;1.80;;
34489;SDS011;20730;49.372;7.324;2023-09-18T13:45:30;5.88;;;1.50;;
34489;SDS011;20730;49.372;7.324;2023-09-18T13:47:57;4.28;;;1.58;;
34489;SDS011;20730;49.372;7.324;2023-09-18T13:50:25;10.18;;;1.60;;
34489;SDS011;20730;49.372;7.324;2023-09-18T13:52:52;5.68;;;1.85;;
34489;SDS011;20730;49.372;7.324;2023-09-18T13:55:19;4.15;;;1.75;;
34489;SDS011;20730;49.372;7.324;2023-09-18T13:57:46;9.75;;;2.22;;
34489;SDS011;20730;49.372;7.324;2023-09-18T14:00:14;13.95;;;2.00;;
34489;SDS011;20730;49.372;7.324;2023-09-18T14:02:41;7.95;;;1.75;;
34489;SDS011;20730;49.372;7.324;2023-09-18T14:05:08;5.10;;;2.10;;
34489;SDS011;20730;49.372;7.324;2023-09-18T14:07:37;7.13;;;1.80;;
34489;SDS011;20730;49.372;7.324;2023-09-18T14:10:07;7.25;;;1.70;;
34489;SDS011;20730;49.372;7.324;2023-09-18T14:12:34;3.45;;;1.70;;
34489;SDS011;20730;49.372;7.324;2023-09-18T14:15:01;6.03;;;2.08;;
34489;SDS011;20730;49.372;7.324;2023-09-18T14:17:28;3.95;;;1.65;;
34489;SDS011;20730;49.372;7.324;2023-09-18T14:19:56;7.20;;;1.80;;
34489;SDS011;20730;49.372;7.324;2023-09-18T14:22:23;6.20;;;2.20;;
34489;SDS011;20730;49.372;7.324;2023-09-18T14:24:49;4.03;;;1.85;;
34489;SDS011;20730;49.372;7.324;2023-09-18T14:27:16;7.78;;;1.80;;
34489;SDS011;20730;49.372;7.324;2023-09-18T14:29:43;3.03;;;1.67;;
34489;SDS011;20730;49.372;7.324;2023-09-18T14:32:10;5.93;;;1.70;;
34489;SDS011;20730;49.372;7.324;2023-09-18T14:34:38;7.22;;;2.03;;
34489;SDS011;20730;49.372;7.324;2023-09-18T14:37:05;8.18;;;1.98;;
34489;SDS011;20730;49.372;7.324;2023-09-18T14:39:32;6.55;;;1.75;;
34489;SDS011;20730;49.372;7.324;2023-09-18T14:41:59;6.18;;;1.90;;
34489;SDS011;20730;49.372;7.324;2023-09-18T14:44:29;5.70;;;1.75;;
34489;SDS011;20730;49.372;7.324;2023-09-18T14:46:58;4.90;;;1.75;;
34489;SDS011;20730;49.372;7.324;2023-09-18T14:49:26;5.10;;;1.67;;
34489;SDS011;20730;49.372;7.324;2023-09-18T14:51:54;5.60;;;1.85;;
34489;SDS011;20730;49.372;7.324;2023-09-18T14:54:21;6.88;;;1.90;;
34489;SDS011;20730;49.372;7.324;2023-09-18T14:56:47;6.63;;;1.90;;
34489;SDS011;20730;49.372;7.324;2023-09-18T14:59:14;4.65;;;1.75;;
34489;SDS011;20730;49.372;7.324;2023-09-18T15:01:57;3.88;;;1.80;;
34489;SDS011;20730;49.372;7.324;2023-09-18T15:04:24;3.53;;;1.75;;
34489;SDS011;20730;49.372;7.324;2023-09-18T15:06:50;4.03;;;1.70;;
34489;SDS011;20730;49.372;7.324;2023-09-18T15:09:17;3.67;;;1.77;;